sensor_id;sensor_type;location;lat;lon;timestamp;P1;durP1;ratioP1;P2;durP2;ratioP2
27889;SDS011;15238;49.082;9.102;2023-03-01T00:00:24;16.48;;;9.73;;
27889;SDS011;15238;49.082;9.102;2023-03-01T00:02:25;15.25;;;9.65;;
27889;SDS011;15238;49.082;9.102;2023-03-01T00:04:25;15.65;;;9.32;;
27889;SDS011;15238;49.082;9.102;2023-03-01T00:06:27;17.60;;;9.77;;
27889;SDS011;15238;49.082;9.102;2023-03-01T00:08:28;17.92;;;10.48;;
27889;SDS011;15238;49.082;9.102;2023-03-01T00:10:30;15.68;;;9.82;;
27889;SDS011;15238;49.082;9.102;2023-03-01T00:12:31;20.33;;;10.10;;
27889;SDS011;15238;49.082;9.102;2023-03-01T00:14:31;20.45;;;9.90;;
27889;SDS011;15238;49.082;9.102;2023-03-01T00:16:33;15.65;;;9.43;;
27889;SDS011;15238;49.082;9.102;2023-03-01T00:18:35;14.88;;;9.55;;
27889;SDS011;15238;49.082;9.102;2023-03-01T00:20:36;16.30;;;9.52;;
27889;SDS011;15238;49.082;9.102;2023-03-01T00:22:36;17.85;;;10.73;;
27889;SDS011;15238;49.082;9.102;2023-03-01T00:24:37;18.35;;;9.93;;
27889;SDS011;15238;49.082;9.102;2023-03-01T00:26:37;17.98;;;10.95;;
27889;SDS011;15238;49.082;9.102;2023-03-01T00:28:38;19.02;;;10.30;;
27889;SDS011;15238;49.082;9.102;2023-03-01T00:30:39;18.35;;;9.80;;
27889;SDS011;15238;49.082;9.102;2023-03-01T00:32:39;19.80;;;10.88;;
27889;SDS011;15238;49.082;9.102;2023-03-01T00:34:40;18.95;;;10.73;;
27889;SDS011;15238;49.082;9.102;2023-03-01T00:36:40;18.42;;;10.05;;
27889;SDS011;15238;49.082;9.102;2023-03-01T00:38:42;20.63;;;9.40;;
27889;SDS011;15238;49.082;9.102;2023-03-01T00:40:44;20.67;;;9.05;;
27889;SDS011;15238;49.082;9.102;2023-03-01T00:42:45;18.15;;;10.25;;
27889;SDS011;15238;49.082;9.102;2023-03-01T00:44:45;17.95;;;10.23;;
27889;SDS011;15238;49.082;9.102;2023-03-01T00:46:46;14.82;;;9.13;;
27889;SDS011;15238;49.082;9.102;2023-03-01T00:48:47;16.75;;;9.10;;
27889;SDS011;15238;49.082;9.102;2023-03-01T00:50:50;15.93;;;9.15;;
27889;SDS011;15238;49.082;9.102;2023-03-01T00:52:54;18.15;;;10.13;;
27889;SDS011;15238;49.082;9.102;2023-03-01T00:54:55;16.55;;;10.25;;
27889;SDS011;15238;49.082;9.102;2023-03-01T00:56:57;20.50;;;8.93;;
27889;SDS011;15238;49.082;9.102;2023-03-01T00:59:00;17.05;;;9.45;;
27889;SDS011;15238;49.082;9.102;2023-03-01T01:01:06;14.77;;;8.40;;
27889;SDS011;15238;49.082;9.102;2023-03-01T01:03:16;18.70;;;10.80;;
27889;SDS011;15238;49.082;9.102;2023-03-01T01:05:17;15.82;;;9.48;;
27889;SDS011;15238;49.082;9.102;2023-03-01T01:07:20;19.42;;;10.63;;
27889;SDS011;15238;49.082;9.102;2023-03-01T01:09:21;18.50;;;10.05;;
27889;SDS011;15238;49.082;9.102;2023-03-01T01:11:22;18.13;;;10.48;;
27889;SDS011;15238;49.082;9.102;2023-03-01T01:13:26;16.52;;;9.90;;
27889;SDS011;15238;49.082;9.102;2023-03-01T01:15:26;19.92;;;10.85;;
27889;SDS011;15238;49.082;9.102;2023-03-01T01:17:27;18.20;;;10.00;;
27889;SDS011;15238;49.082;9.102;2023-03-01T01:19:27;16.88;;;10.57;;
27889;SDS011;15238;49.082;9.102;2023-03-01T01:21:28;21.10;;;11.07;;
27889;SDS011;15238;49.082;9.102;2023-03-01T01:23:29;17.55;;;10.35;;
27889;SDS011;15238;49.082;9.102;2023-03-01T01:25:29;20.60;;;11.52;;
27889;SDS011;15238;49.082;9.102;2023-03-01T01:27:30;18.45;;;10.77;;
27889;SDS011;15238;49.082;9.102;2023-03-01T01:29:31;19.35;;;10.63;;
27889;SDS011;15238;49.082;9.102;2023-03-01T01:31:31;19.42;;;11.18;;
27889;SDS011;15238;49.082;9.102;2023-03-01T01:33:33;21.08;;;11.05;;
27889;SDS011;15238;49.082;9.102;2023-03-01T01:35:34;19.17;;;10.68;;
27889;SDS011;15238;49.082;9.102;2023-03-01T01:37:35;20.27;;;11.00;;
27889;SDS011;15238;49.082;9.102;2023-03-01T01:39:35;17.58;;;10.20;;
27889;SDS011;15238;49.082;9.102;2023-03-01T01:41:36;20.17;;;11.25;;
27889;SDS011;15238;49.082;9.102;2023-03-01T01:43:40;19.15;;;11.02;;
27889;SDS011;15238;49.082;9.102;2023-03-01T01:45:42;16.73;;;10.45;;
27889;SDS011;15238;49.082;9.102;2023-03-01T01:47:43;20.75;;;10.65;;
27889;SDS011;15238;49.082;9.102;2023-03-01T01:49:54;18.42;;;10.77;;
27889;SDS011;15238;49.082;9.102;2023-03-01T01:52:04;19.60;;;11.82;;
27889;SDS011;15238;49.082;9.102;2023-03-01T01:54:21;20.55;;;11.90;;
27889;SDS011;15238;49.082;9.102;2023-03-01T01:56:47;22.73;;;11.45;;
27889;SDS011;15238;49.082;9.102;2023-03-01T01:58:51;19.05;;;11.23;;
27889;SDS011;15238;49.082;9.102;2023-03-01T02:00:52;22.80;;;11.43;;
27889;SDS011;15238;49.082;9.102;2023-03-01T02:02:57;17.73;;;10.52;;
27889;SDS011;15238;49.082;9.102;2023-03-01T02:05:02;21.65;;;10.63;;
27889;SDS011;15238;49.082;9.102;2023-03-01T02:07:17;22.08;;;11.30;;
27889;SDS011;15238;49.082;9.102;2023-03-01T02:09:21;20.25;;;10.73;;
27889;SDS011;15238;49.082;9.102;2023-03-01T02:11:22;24.05;;;11.23;;
27889;SDS011;15238;49.082;9.102;2023-03-01T02:13:23;24.70;;;11.98;;
27889;SDS011;15238;49.082;9.102;2023-03-01T02:15:24;18.65;;;11.80;;
27889;SDS011;15238;49.082;9.102;2023-03-01T02:17:26;19.02;;;11.13;;
27889;SDS011;15238;49.082;9.102;2023-03-01T02:23:53;17.67;;;9.95;;
27889;SDS011;15238;49.082;9.102;2023-03-01T02:26:04;19.15;;;11.05;;
27889;SDS011;15238;49.082;9.102;2023-03-01T02:30:18;21.63;;;11.55;;
27889;SDS011;15238;49.082;9.102;2023-03-01T02:32:20;19.52;;;12.25;;
27889;SDS011;15238;49.082;9.102;2023-03-01T02:34:25;18.77;;;11.13;;
27889;SDS011;15238;49.082;9.102;2023-03-01T02:36:26;20.27;;;11.35;;
27889;SDS011;15238;49.082;9.102;2023-03-01T02:38:30;19.00;;;10.27;;
27889;SDS011;15238;49.082;9.102;2023-03-01T02:40:31;18.23;;;10.85;;
27889;SDS011;15238;49.082;9.102;2023-03-01T02:42:35;19.70;;;11.00;;
27889;SDS011;15238;49.082;9.102;2023-03-01T02:44:40;19.00;;;11.45;;
27889;SDS011;15238;49.082;9.102;2023-03-01T02:46:41;18.77;;;11.40;;
27889;SDS011;15238;49.082;9.102;2023-03-01T02:48:54;20.98;;;11.25;;
27889;SDS011;15238;49.082;9.102;2023-03-01T02:51:04;19.63;;;12.35;;
27889;SDS011;15238;49.082;9.102;2023-03-01T02:53:13;22.08;;;11.45;;
27889;SDS011;15238;49.082;9.102;2023-03-01T02:55:36;23.20;;;11.45;;
27889;SDS011;15238;49.082;9.102;2023-03-01T02:57:39;22.15;;;12.48;;
27889;SDS011;15238;49.082;9.102;2023-03-01T02:59:42;21.27;;;10.82;;
27889;SDS011;15238;49.082;9.102;2023-03-01T03:01:43;21.25;;;11.77;;
27889;SDS011;15238;49.082;9.102;2023-03-01T03:03:43;21.55;;;12.25;;
27889;SDS011;15238;49.082;9.102;2023-03-01T03:05:44;21.05;;;11.45;;
27889;SDS011;15238;49.082;9.102;2023-03-01T03:07:45;20.60;;;11.27;;
27889;SDS011;15238;49.082;9.102;2023-03-01T03:09:47;18.98;;;11.38;;
27889;SDS011;15238;49.082;9.102;2023-03-01T03:11:50;20.05;;;12.13;;
27889;SDS011;15238;49.082;9.102;2023-03-01T03:13:51;20.35;;;12.63;;
27889;SDS011;15238;49.082;9.102;2023-03-01T03:15:51;22.20;;;12.35;;
27889;SDS011;15238;49.082;9.102;2023-03-01T03:17:52;20.80;;;11.90;;
27889;SDS011;15238;49.082;9.102;2023-03-01T03:19:53;20.42;;;12.65;;
27889;SDS011;15238;49.082;9.102;2023-03-01T03:21:54;21.10;;;11.20;;
27889;SDS011;15238;49.082;9.102;2023-03-01T03:23:54;19.38;;;12.00;;
27889;SDS011;15238;49.082;9.102;2023-03-01T03:25:55;19.20;;;12.18;;
27889;SDS011;15238;49.082;9.102;2023-03-01T03:27:56;22.88;;;12.27;;
27889;SDS011;15238;49.082;9.102;2023-03-01T03:29:57;22.88;;;11.98;;
27889;SDS011;15238;49.082;9.102;2023-03-01T03:31:58;20.27;;;12.52;;
27889;SDS011;15238;49.082;9.102;2023-03-01T03:33:59;25.48;;;13.40;;
27889;SDS011;15238;49.082;9.102;2023-03-01T03:35:59;23.30;;;12.63;;
27889;SDS011;15238;49.082;9.102;2023-03-01T03:38:00;23.52;;;12.27;;
27889;SDS011;15238;49.082;9.102;2023-03-01T03:40:05;20.95;;;12.82;;
27889;SDS011;15238;49.082;9.102;2023-03-01T03:42:15;26.00;;;12.77;;
27889;SDS011;15238;49.082;9.102;2023-03-01T03:44:15;21.92;;;12.43;;
27889;SDS011;15238;49.082;9.102;2023-03-01T03:46:16;22.70;;;13.07;;
27889;SDS011;15238;49.082;9.102;2023-03-01T03:48:17;22.20;;;12.88;;
27889;SDS011;15238;49.082;9.102;2023-03-01T03:50:18;24.52;;;14.00;;
27889;SDS011;15238;49.082;9.102;2023-03-01T03:52:19;22.27;;;12.97;;
27889;SDS011;15238;49.082;9.102;2023-03-01T03:54:19;22.95;;;12.85;;
27889;SDS011;15238;49.082;9.102;2023-03-01T03:56:20;26.17;;;13.13;;
27889;SDS011;15238;49.082;9.102;2023-03-01T03:58:25;26.00;;;13.00;;
27889;SDS011;15238;49.082;9.102;2023-03-01T04:00:26;25.73;;;12.63;;
27889;SDS011;15238;49.082;9.102;2023-03-01T04:02:26;22.50;;;12.43;;
27889;SDS011;15238;49.082;9.102;2023-03-01T04:04:27;25.38;;;14.05;;
27889;SDS011;15238;49.082;9.102;2023-03-01T04:06:27;23.70;;;13.10;;
27889;SDS011;15238;49.082;9.102;2023-03-01T04:08:28;25.52;;;13.63;;
27889;SDS011;15238;49.082;9.102;2023-03-01T04:10:30;24.97;;;14.20;;
27889;SDS011;15238;49.082;9.102;2023-03-01T04:12:32;23.57;;;13.53;;
27889;SDS011;15238;49.082;9.102;2023-03-01T04:14:36;24.30;;;13.43;;
27889;SDS011;15238;49.082;9.102;2023-03-01T04:16:36;21.13;;;12.32;;
27889;SDS011;15238;49.082;9.102;2023-03-01T04:18:37;25.88;;;13.57;;
27889;SDS011;15238;49.082;9.102;2023-03-01T04:20:37;26.50;;;13.95;;
27889;SDS011;15238;49.082;9.102;2023-03-01T04:22:39;22.38;;;12.60;;
27889;SDS011;15238;49.082;9.102;2023-03-01T04:24:40;20.88;;;12.35;;
27889;SDS011;15238;49.082;9.102;2023-03-01T04:26:40;22.58;;;12.70;;
27889;SDS011;15238;49.082;9.102;2023-03-01T04:28:41;23.38;;;13.88;;
27889;SDS011;15238;49.082;9.102;2023-03-01T04:30:45;22.75;;;13.93;;
27889;SDS011;15238;49.082;9.102;2023-03-01T04:32:46;24.53;;;14.53;;
27889;SDS011;15238;49.082;9.102;2023-03-01T04:34:47;23.55;;;13.73;;
27889;SDS011;15238;49.082;9.102;2023-03-01T04:36:47;30.77;;;13.20;;
27889;SDS011;15238;49.082;9.102;2023-03-01T04:38:48;23.52;;;13.43;;
27889;SDS011;15238;49.082;9.102;2023-03-01T04:40:48;26.03;;;13.87;;
27889;SDS011;15238;49.082;9.102;2023-03-01T04:42:49;23.23;;;13.55;;
27889;SDS011;15238;49.082;9.102;2023-03-01T04:44:49;23.83;;;13.32;;
27889;SDS011;15238;49.082;9.102;2023-03-01T04:46:51;28.88;;;12.73;;
27889;SDS011;15238;49.082;9.102;2023-03-01T04:48:51;22.23;;;13.07;;
27889;SDS011;15238;49.082;9.102;2023-03-01T04:50:52;27.50;;;13.25;;
27889;SDS011;15238;49.082;9.102;2023-03-01T04:52:52;33.33;;;15.15;;
27889;SDS011;15238;49.082;9.102;2023-03-01T04:54:53;22.17;;;12.65;;
27889;SDS011;15238;49.082;9.102;2023-03-01T04:56:54;26.27;;;12.60;;
27889;SDS011;15238;49.082;9.102;2023-03-01T04:58:54;25.42;;;13.98;;
27889;SDS011;15238;49.082;9.102;2023-03-01T05:00:55;24.17;;;13.65;;
27889;SDS011;15238;49.082;9.102;2023-03-01T05:02:56;26.97;;;14.50;;
27889;SDS011;15238;49.082;9.102;2023-03-01T05:04:59;27.58;;;14.35;;
27889;SDS011;15238;49.082;9.102;2023-03-01T05:06:59;26.98;;;14.18;;
27889;SDS011;15238;49.082;9.102;2023-03-01T05:09:00;23.52;;;13.43;;
27889;SDS011;15238;49.082;9.102;2023-03-01T05:11:00;26.85;;;14.05;;
27889;SDS011;15238;49.082;9.102;2023-03-01T05:13:01;25.67;;;14.02;;
27889;SDS011;15238;49.082;9.102;2023-03-01T05:15:03;22.05;;;13.23;;
27889;SDS011;15238;49.082;9.102;2023-03-01T05:17:07;25.35;;;13.93;;
27889;SDS011;15238;49.082;9.102;2023-03-01T05:19:07;24.25;;;14.50;;
27889;SDS011;15238;49.082;9.102;2023-03-01T05:21:22;23.70;;;14.07;;
27889;SDS011;15238;49.082;9.102;2023-03-01T05:23:23;26.25;;;14.30;;
27889;SDS011;15238;49.082;9.102;2023-03-01T05:25:24;30.00;;;14.10;;
27889;SDS011;15238;49.082;9.102;2023-03-01T05:27:25;27.60;;;13.73;;
27889;SDS011;15238;49.082;9.102;2023-03-01T05:29:26;24.95;;;14.93;;
27889;SDS011;15238;49.082;9.102;2023-03-01T05:31:29;23.65;;;13.82;;
27889;SDS011;15238;49.082;9.102;2023-03-01T05:33:30;26.02;;;14.35;;
27889;SDS011;15238;49.082;9.102;2023-03-01T05:35:32;28.13;;;15.05;;
27889;SDS011;15238;49.082;9.102;2023-03-01T05:37:33;23.40;;;13.63;;
27889;SDS011;15238;49.082;9.102;2023-03-01T05:39:35;26.55;;;13.48;;
27889;SDS011;15238;49.082;9.102;2023-03-01T05:41:36;24.90;;;14.02;;
27889;SDS011;15238;49.082;9.102;2023-03-01T05:43:37;25.63;;;14.13;;
27889;SDS011;15238;49.082;9.102;2023-03-01T05:45:39;26.35;;;15.35;;
27889;SDS011;15238;49.082;9.102;2023-03-01T05:47:41;28.92;;;15.60;;
27889;SDS011;15238;49.082;9.102;2023-03-01T05:49:46;32.30;;;15.07;;
27889;SDS011;15238;49.082;9.102;2023-03-01T05:51:50;28.98;;;14.98;;
27889;SDS011;15238;49.082;9.102;2023-03-01T05:53:52;25.23;;;14.97;;
27889;SDS011;15238;49.082;9.102;2023-03-01T05:55:53;25.05;;;14.95;;
27889;SDS011;15238;49.082;9.102;2023-03-01T05:57:53;28.55;;;15.38;;
27889;SDS011;15238;49.082;9.102;2023-03-01T05:59:54;25.70;;;14.90;;
27889;SDS011;15238;49.082;9.102;2023-03-01T06:01:54;29.90;;;14.80;;
27889;SDS011;15238;49.082;9.102;2023-03-01T06:03:55;24.70;;;13.85;;
27889;SDS011;15238;49.082;9.102;2023-03-01T06:05:57;36.28;;;15.38;;
27889;SDS011;15238;49.082;9.102;2023-03-01T06:07:58;29.88;;;15.32;;
27889;SDS011;15238;49.082;9.102;2023-03-01T06:09:59;26.98;;;15.23;;
27889;SDS011;15238;49.082;9.102;2023-03-01T06:12:00;27.23;;;14.43;;
27889;SDS011;15238;49.082;9.102;2023-03-01T06:14:00;26.50;;;15.00;;
27889;SDS011;15238;49.082;9.102;2023-03-01T06:16:03;30.98;;;16.38;;
27889;SDS011;15238;49.082;9.102;2023-03-01T06:18:05;29.55;;;16.20;;
27889;SDS011;15238;49.082;9.102;2023-03-01T06:20:07;26.80;;;14.95;;
27889;SDS011;15238;49.082;9.102;2023-03-01T06:22:10;27.83;;;15.13;;
27889;SDS011;15238;49.082;9.102;2023-03-01T06:24:10;27.70;;;14.65;;
27889;SDS011;15238;49.082;9.102;2023-03-01T06:26:11;30.45;;;14.38;;
27889;SDS011;15238;49.082;9.102;2023-03-01T06:28:11;28.23;;;15.27;;
27889;SDS011;15238;49.082;9.102;2023-03-01T06:30:13;25.90;;;14.45;;
27889;SDS011;15238;49.082;9.102;2023-03-01T06:32:17;24.40;;;14.48;;
27889;SDS011;15238;49.082;9.102;2023-03-01T06:34:18;26.42;;;14.43;;
27889;SDS011;15238;49.082;9.102;2023-03-01T06:36:19;26.95;;;15.02;;
27889;SDS011;15238;49.082;9.102;2023-03-01T06:38:21;25.65;;;14.82;;
27889;SDS011;15238;49.082;9.102;2023-03-01T06:40:21;33.08;;;15.27;;
27889;SDS011;15238;49.082;9.102;2023-03-01T06:42:22;29.50;;;15.20;;
27889;SDS011;15238;49.082;9.102;2023-03-01T06:44:22;26.65;;;15.20;;
27889;SDS011;15238;49.082;9.102;2023-03-01T06:46:23;30.60;;;14.13;;
27889;SDS011;15238;49.082;9.102;2023-03-01T06:48:23;26.83;;;14.93;;
27889;SDS011;15238;49.082;9.102;2023-03-01T06:50:24;27.17;;;14.18;;
27889;SDS011;15238;49.082;9.102;2023-03-01T06:52:24;25.63;;;14.00;;
27889;SDS011;15238;49.082;9.102;2023-03-01T06:54:25;26.95;;;13.90;;
27889;SDS011;15238;49.082;9.102;2023-03-01T06:56:26;23.67;;;13.90;;
27889;SDS011;15238;49.082;9.102;2023-03-01T06:58:29;25.45;;;14.48;;
27889;SDS011;15238;49.082;9.102;2023-03-01T07:00:29;25.52;;;14.85;;
27889;SDS011;15238;49.082;9.102;2023-03-01T07:02:31;26.17;;;14.95;;
27889;SDS011;15238;49.082;9.102;2023-03-01T07:04:31;32.47;;;15.80;;
27889;SDS011;15238;49.082;9.102;2023-03-01T07:06:32;29.38;;;14.40;;
27889;SDS011;15238;49.082;9.102;2023-03-01T07:08:32;26.33;;;14.55;;
27889;SDS011;15238;49.082;9.102;2023-03-01T07:10:33;28.13;;;15.13;;
27889;SDS011;15238;49.082;9.102;2023-03-01T07:12:33;25.00;;;14.27;;
27889;SDS011;15238;49.082;9.102;2023-03-01T07:14:34;25.90;;;14.63;;
27889;SDS011;15238;49.082;9.102;2023-03-01T07:16:34;26.10;;;13.70;;
27889;SDS011;15238;49.082;9.102;2023-03-01T07:18:35;27.02;;;14.52;;
27889;SDS011;15238;49.082;9.102;2023-03-01T07:20:36;21.70;;;12.80;;
27889;SDS011;15238;49.082;9.102;2023-03-01T07:22:36;26.50;;;14.38;;
27889;SDS011;15238;49.082;9.102;2023-03-01T07:24:41;25.05;;;14.75;;
27889;SDS011;15238;49.082;9.102;2023-03-01T07:26:42;28.10;;;14.40;;
27889;SDS011;15238;49.082;9.102;2023-03-01T07:28:42;29.98;;;14.82;;
27889;SDS011;15238;49.082;9.102;2023-03-01T07:30:43;23.45;;;12.88;;
27889;SDS011;15238;49.082;9.102;2023-03-01T07:32:44;22.02;;;14.00;;
27889;SDS011;15238;49.082;9.102;2023-03-01T07:34:45;25.00;;;14.05;;
27889;SDS011;15238;49.082;9.102;2023-03-01T07:36:45;23.77;;;14.10;;
27889;SDS011;15238;49.082;9.102;2023-03-01T07:38:47;26.00;;;14.43;;
27889;SDS011;15238;49.082;9.102;2023-03-01T07:40:47;23.30;;;14.32;;
27889;SDS011;15238;49.082;9.102;2023-03-01T07:42:48;23.27;;;12.93;;
27889;SDS011;15238;49.082;9.102;2023-03-01T07:44:49;22.88;;;13.23;;
27889;SDS011;15238;49.082;9.102;2023-03-01T07:46:49;22.95;;;14.10;;
27889;SDS011;15238;49.082;9.102;2023-03-01T07:48:51;21.98;;;12.70;;
27889;SDS011;15238;49.082;9.102;2023-03-01T07:50:52;23.23;;;12.63;;
27889;SDS011;15238;49.082;9.102;2023-03-01T07:52:52;22.38;;;13.65;;
27889;SDS011;15238;49.082;9.102;2023-03-01T07:54:53;22.23;;;13.15;;
27889;SDS011;15238;49.082;9.102;2023-03-01T07:56:53;25.02;;;14.45;;
27889;SDS011;15238;49.082;9.102;2023-03-01T07:58:54;24.00;;;13.63;;
27889;SDS011;15238;49.082;9.102;2023-03-01T08:00:55;24.85;;;13.68;;
27889;SDS011;15238;49.082;9.102;2023-03-01T08:02:58;23.58;;;13.45;;
27889;SDS011;15238;49.082;9.102;2023-03-01T08:05:00;26.63;;;13.90;;
27889;SDS011;15238;49.082;9.102;2023-03-01T08:07:01;25.77;;;13.23;;
27889;SDS011;15238;49.082;9.102;2023-03-01T08:09:04;20.70;;;13.00;;
27889;SDS011;15238;49.082;9.102;2023-03-01T08:11:05;22.60;;;13.48;;
27889;SDS011;15238;49.082;9.102;2023-03-01T08:13:07;23.33;;;13.07;;
27889;SDS011;15238;49.082;9.102;2023-03-01T08:15:08;23.73;;;13.30;;
27889;SDS011;15238;49.082;9.102;2023-03-01T08:17:09;28.17;;;13.73;;
27889;SDS011;15238;49.082;9.102;2023-03-01T08:19:10;22.20;;;14.30;;
27889;SDS011;15238;49.082;9.102;2023-03-01T08:21:13;21.73;;;13.15;;
27889;SDS011;15238;49.082;9.102;2023-03-01T08:23:15;22.85;;;13.57;;
27889;SDS011;15238;49.082;9.102;2023-03-01T08:25:15;19.27;;;12.50;;
27889;SDS011;15238;49.082;9.102;2023-03-01T08:27:16;22.45;;;12.55;;
27889;SDS011;15238;49.082;9.102;2023-03-01T08:29:17;28.15;;;13.60;;
27889;SDS011;15238;49.082;9.102;2023-03-01T08:31:19;22.38;;;13.27;;
27889;SDS011;15238;49.082;9.102;2023-03-01T08:33:24;21.35;;;13.00;;
27889;SDS011;15238;49.082;9.102;2023-03-01T08:35:25;21.98;;;13.45;;
27889;SDS011;15238;49.082;9.102;2023-03-01T08:37:25;20.75;;;13.52;;
27889;SDS011;15238;49.082;9.102;2023-03-01T08:39:26;20.95;;;12.38;;
27889;SDS011;15238;49.082;9.102;2023-03-01T08:41:27;26.25;;;12.82;;
27889;SDS011;15238;49.082;9.102;2023-03-01T08:43:28;23.10;;;13.95;;
27889;SDS011;15238;49.082;9.102;2023-03-01T08:45:29;24.98;;;13.98;;
27889;SDS011;15238;49.082;9.102;2023-03-01T08:47:30;24.85;;;13.48;;
27889;SDS011;15238;49.082;9.102;2023-03-01T08:49:30;25.95;;;13.32;;
27889;SDS011;15238;49.082;9.102;2023-03-01T08:51:32;20.38;;;12.23;;
27889;SDS011;15238;49.082;9.102;2023-03-01T08:53:36;24.98;;;13.65;;
27889;SDS011;15238;49.082;9.102;2023-03-01T08:55:37;20.33;;;12.35;;
27889;SDS011;15238;49.082;9.102;2023-03-01T08:57:37;24.40;;;12.77;;
27889;SDS011;15238;49.082;9.102;2023-03-01T08:59:38;21.85;;;12.77;;
27889;SDS011;15238;49.082;9.102;2023-03-01T09:01:38;20.73;;;12.80;;
27889;SDS011;15238;49.082;9.102;2023-03-01T09:03:40;22.48;;;14.10;;
27889;SDS011;15238;49.082;9.102;2023-03-01T09:05:40;19.60;;;11.93;;
27889;SDS011;15238;49.082;9.102;2023-03-01T09:07:41;21.63;;;13.50;;
27889;SDS011;15238;49.082;9.102;2023-03-01T09:09:41;21.80;;;12.35;;
27889;SDS011;15238;49.082;9.102;2023-03-01T09:11:42;23.33;;;12.63;;
27889;SDS011;15238;49.082;9.102;2023-03-01T09:13:46;25.15;;;12.80;;
27889;SDS011;15238;49.082;9.102;2023-03-01T09:15:47;23.60;;;12.93;;
27889;SDS011;15238;49.082;9.102;2023-03-01T09:17:48;24.08;;;13.60;;
27889;SDS011;15238;49.082;9.102;2023-03-01T09:19:48;23.60;;;15.10;;
27889;SDS011;15238;49.082;9.102;2023-03-01T09:21:49;22.88;;;13.32;;
27889;SDS011;15238;49.082;9.102;2023-03-01T09:23:52;25.20;;;13.65;;
27889;SDS011;15238;49.082;9.102;2023-03-01T09:25:53;24.00;;;13.02;;
27889;SDS011;15238;49.082;9.102;2023-03-01T09:27:54;22.52;;;12.77;;
27889;SDS011;15238;49.082;9.102;2023-03-01T09:29:54;25.35;;;13.52;;
27889;SDS011;15238;49.082;9.102;2023-03-01T09:31:56;20.70;;;12.65;;
27889;SDS011;15238;49.082;9.102;2023-03-01T09:33:56;24.70;;;13.35;;
27889;SDS011;15238;49.082;9.102;2023-03-01T09:35:58;24.10;;;12.90;;
27889;SDS011;15238;49.082;9.102;2023-03-01T09:38:03;20.33;;;12.82;;
27889;SDS011;15238;49.082;9.102;2023-03-01T09:40:04;23.17;;;13.68;;
27889;SDS011;15238;49.082;9.102;2023-03-01T09:42:11;20.90;;;12.52;;
27889;SDS011;15238;49.082;9.102;2023-03-01T09:44:32;21.95;;;13.35;;
27889;SDS011;15238;49.082;9.102;2023-03-01T09:46:40;23.15;;;12.48;;
27889;SDS011;15238;49.082;9.102;2023-03-01T09:48:48;21.73;;;13.23;;
27889;SDS011;15238;49.082;9.102;2023-03-01T09:50:51;21.55;;;12.77;;
27889;SDS011;15238;49.082;9.102;2023-03-01T09:53:00;21.67;;;13.65;;
27889;SDS011;15238;49.082;9.102;2023-03-01T09:55:01;24.25;;;13.88;;
27889;SDS011;15238;49.082;9.102;2023-03-01T09:57:13;22.13;;;13.70;;
27889;SDS011;15238;49.082;9.102;2023-03-01T09:59:24;21.27;;;13.57;;
27889;SDS011;15238;49.082;9.102;2023-03-01T10:06:23;19.55;;;13.23;;
27889;SDS011;15238;49.082;9.102;2023-03-01T10:08:34;22.38;;;14.35;;
27889;SDS011;15238;49.082;9.102;2023-03-01T10:10:54;23.63;;;14.55;;
27889;SDS011;15238;49.082;9.102;2023-03-01T10:12:55;24.17;;;13.80;;
27889;SDS011;15238;49.082;9.102;2023-03-01T10:15:04;21.92;;;13.02;;
27889;SDS011;15238;49.082;9.102;2023-03-01T10:17:12;20.90;;;11.60;;
27889;SDS011;15238;49.082;9.102;2023-03-01T10:19:46;21.48;;;13.02;;
27889;SDS011;15238;49.082;9.102;2023-03-01T10:21:47;19.52;;;12.82;;
27889;SDS011;15238;49.082;9.102;2023-03-01T10:23:50;25.20;;;12.98;;
27889;SDS011;15238;49.082;9.102;2023-03-01T10:25:59;23.13;;;13.85;;
27889;SDS011;15238;49.082;9.102;2023-03-01T10:30:13;21.80;;;14.25;;
27889;SDS011;15238;49.082;9.102;2023-03-01T10:32:19;23.30;;;15.18;;
27889;SDS011;15238;49.082;9.102;2023-03-01T10:34:26;24.90;;;14.48;;
27889;SDS011;15238;49.082;9.102;2023-03-01T10:36:28;22.02;;;12.23;;
27889;SDS011;15238;49.082;9.102;2023-03-01T10:38:47;21.80;;;13.27;;
27889;SDS011;15238;49.082;9.102;2023-03-01T10:40:57;25.77;;;14.10;;
27889;SDS011;15238;49.082;9.102;2023-03-01T10:43:06;22.20;;;13.80;;
27889;SDS011;15238;49.082;9.102;2023-03-01T10:45:30;23.13;;;12.88;;
27889;SDS011;15238;49.082;9.102;2023-03-01T10:47:31;27.77;;;14.63;;
27889;SDS011;15238;49.082;9.102;2023-03-01T10:49:31;26.08;;;13.63;;
27889;SDS011;15238;49.082;9.102;2023-03-01T10:51:32;22.45;;;14.07;;
27889;SDS011;15238;49.082;9.102;2023-03-01T10:53:37;24.50;;;14.60;;
27889;SDS011;15238;49.082;9.102;2023-03-01T10:55:40;21.75;;;13.18;;
27889;SDS011;15238;49.082;9.102;2023-03-01T10:57:41;20.55;;;13.80;;
27889;SDS011;15238;49.082;9.102;2023-03-01T10:59:42;20.90;;;12.85;;
27889;SDS011;15238;49.082;9.102;2023-03-01T11:01:42;22.00;;;13.52;;
27889;SDS011;15238;49.082;9.102;2023-03-01T11:03:43;24.45;;;14.02;;
27889;SDS011;15238;49.082;9.102;2023-03-01T11:05:50;24.00;;;13.15;;
27889;SDS011;15238;49.082;9.102;2023-03-01T11:08:04;24.05;;;13.20;;
27889;SDS011;15238;49.082;9.102;2023-03-01T11:10:11;21.98;;;12.98;;
27889;SDS011;15238;49.082;9.102;2023-03-01T11:12:15;22.30;;;14.13;;
27889;SDS011;15238;49.082;9.102;2023-03-01T11:14:23;26.60;;;14.48;;
27889;SDS011;15238;49.082;9.102;2023-03-01T11:16:32;19.25;;;12.68;;
27889;SDS011;15238;49.082;9.102;2023-03-01T11:18:35;23.63;;;13.77;;
27889;SDS011;15238;49.082;9.102;2023-03-01T11:20:36;23.42;;;13.93;;
27889;SDS011;15238;49.082;9.102;2023-03-01T11:22:41;21.77;;;12.63;;
27889;SDS011;15238;49.082;9.102;2023-03-01T11:24:59;19.60;;;12.63;;
27889;SDS011;15238;49.082;9.102;2023-03-01T11:27:03;21.08;;;12.73;;
27889;SDS011;15238;49.082;9.102;2023-03-01T11:29:22;27.08;;;14.75;;
27889;SDS011;15238;49.082;9.102;2023-03-01T11:31:30;20.73;;;13.90;;
27889;SDS011;15238;49.082;9.102;2023-03-01T11:33:37;24.00;;;15.48;;
27889;SDS011;15238;49.082;9.102;2023-03-01T11:35:55;22.48;;;13.55;;
27889;SDS011;15238;49.082;9.102;2023-03-01T11:42:12;21.40;;;13.85;;
27889;SDS011;15238;49.082;9.102;2023-03-01T11:44:23;25.10;;;13.93;;
27889;SDS011;15238;49.082;9.102;2023-03-01T11:51:02;20.67;;;12.88;;
27889;SDS011;15238;49.082;9.102;2023-03-01T11:53:17;21.30;;;13.43;;
27889;SDS011;15238;49.082;9.102;2023-03-01T12:00:11;21.05;;;14.60;;
27889;SDS011;15238;49.082;9.102;2023-03-01T12:02:28;21.45;;;13.88;;
27889;SDS011;15238;49.082;9.102;2023-03-01T12:13:59;19.50;;;13.07;;
27889;SDS011;15238;49.082;9.102;2023-03-01T12:18:59;21.52;;;13.98;;
27889;SDS011;15238;49.082;9.102;2023-03-01T12:26:10;20.10;;;14.02;;
27889;SDS011;15238;49.082;9.102;2023-03-01T12:31:05;22.48;;;13.80;;
27889;SDS011;15238;49.082;9.102;2023-03-01T12:35:27;22.13;;;13.35;;
27889;SDS011;15238;49.082;9.102;2023-03-01T12:37:38;21.35;;;12.23;;
27889;SDS011;15238;49.082;9.102;2023-03-01T12:39:55;21.83;;;13.27;;
27889;SDS011;15238;49.082;9.102;2023-03-01T12:42:08;19.02;;;12.40;;
27889;SDS011;15238;49.082;9.102;2023-03-01T12:44:27;23.98;;;12.90;;
27889;SDS011;15238;49.082;9.102;2023-03-01T12:49:01;20.08;;;12.30;;
27889;SDS011;15238;49.082;9.102;2023-03-01T12:51:11;21.10;;;13.30;;
27889;SDS011;15238;49.082;9.102;2023-03-01T12:53:22;22.10;;;12.50;;